sensor_id;sensor_type;location;lat;lon;timestamp;pressure;altitude;pressure_sealevel;temperature;humidity
33189;BME280;52601;53.070;10.600;2023-04-05T00:01:45;102257.31;;;-4.14;100.00
33189;BME280;52601;53.070;10.600;2023-04-05T00:04:34;102270.19;;;-4.11;100.00
33189;BME280;52601;53.070;10.600;2023-04-05T00:07:19;102261.44;;;-4.18;100.00
33189;BME280;52601;53.070;10.600;2023-04-05T00:10:06;102259.66;;;-4.20;100.00
33189;BME280;52601;53.070;10.600;2023-04-05T00:12:52;102260.75;;;-4.14;100.00
33189;BME280;52601;53.070;10.600;2023-04-05T00:15:37;102263.13;;;-4.18;100.00
33189;BME280;52601;53.070;10.600;2023-04-05T00:18:22;102271.78;;;-4.15;100.00
33189;BME280;52601;53.070;10.600;2023-04-05T00:21:09;102271.50;;;-4.22;100.00
33189;BME280;52601;53.070;10.600;2023-04-05T00:23:55;102274.03;;;-4.24;100.00
33189;BME280;52601;53.070;10.600;2023-04-05T00:26:44;102274.06;;;-4.22;100.00
33189;BME280;52601;53.070;10.600;2023-04-05T00:29:30;102278.44;;;-4.20;100.00
33189;BME280;52601;53.070;10.600;2023-04-05T00:32:15;102264.84;;;-4.17;100.00
33189;BME280;52601;53.070;10.600;2023-04-05T00:35:01;102263.84;;;-4.22;100.00
33189;BME280;52601;53.070;10.600;2023-04-05T00:37:47;102266.28;;;-4.25;100.00
33189;BME280;52601;53.070;10.600;2023-04-05T00:40:32;102266.22;;;-4.27;100.00
33189;BME280;52601;53.070;10.600;2023-04-05T00:43:18;102266.91;;;-4.31;100.00
33189;BME280;52601;53.070;10.600;2023-04-05T00:46:05;102267.41;;;-4.41;100.00
33189;BME280;52601;53.070;10.600;2023-04-05T00:48:50;102261.31;;;-4.45;100.00
33189;BME280;52601;53.070;10.600;2023-04-05T00:51:36;102273.13;;;-4.48;100.00
33189;BME280;52601;53.070;10.600;2023-04-05T00:54:23;102271.72;;;-4.40;100.00
33189;BME280;52601;53.070;10.600;2023-04-05T00:57:10;102277.00;;;-4.35;100.00
33189;BME280;52601;53.070;10.600;2023-04-05T00:59:58;102272.72;;;-4.13;100.00
33189;BME280;52601;53.070;10.600;2023-04-05T01:02:48;102269.78;;;-3.76;100.00
33189;BME280;52601;53.070;10.600;2023-04-05T01:05:43;102271.25;;;-3.58;100.00
33189;BME280;52601;53.070;10.600;2023-04-05T01:12:03;102259.19;;;-3.85;100.00
33189;BME280;52601;53.070;10.600;2023-04-05T01:14:52;102271.91;;;-4.12;100.00
33189;BME280;52601;53.070;10.600;2023-04-05T01:17:38;102260.44;;;-4.21;100.00
33189;BME280;52601;53.070;10.600;2023-04-05T01:20:24;102270.59;;;-4.24;100.00
33189;BME280;52601;53.070;10.600;2023-04-05T01:23:27;102261.66;;;-4.35;100.00
33189;BME280;52601;53.070;10.600;2023-04-05T01:32:41;102255.53;;;-4.39;100.00
33189;BME280;52601;53.070;10.600;2023-04-05T01:35:49;102253.16;;;-4.34;100.00
33189;BME280;52601;53.070;10.600;2023-04-05T01:38:38;102246.69;;;-4.47;100.00
33189;BME280;52601;53.070;10.600;2023-04-05T01:41:24;102234.38;;;-4.57;100.00
33189;BME280;52601;53.070;10.600;2023-04-05T01:44:11;102238.41;;;-4.64;100.00
33189;BME280;52601;53.070;10.600;2023-04-05T01:46:57;102241.31;;;-4.55;100.00
33189;BME280;52601;53.070;10.600;2023-04-05T01:49:42;102241.53;;;-4.49;100.00
33189;BME280;52601;53.070;10.600;2023-04-05T01:52:28;102229.22;;;-4.59;100.00
33189;BME280;52601;53.070;10.600;2023-04-05T01:55:13;102231.19;;;-4.52;100.00
33189;BME280;52601;53.070;10.600;2023-04-05T01:57:59;102224.34;;;-4.29;100.00
33189;BME280;52601;53.070;10.600;2023-04-05T02:00:44;102229.78;;;-4.44;100.00
33189;BME280;52601;53.070;10.600;2023-04-05T02:03:30;102223.53;;;-4.52;100.00
33189;BME280;52601;53.070;10.600;2023-04-05T02:06:15;102216.38;;;-4.60;100.00
33189;BME280;52601;53.070;10.600;2023-04-05T02:09:01;102223.69;;;-4.69;100.00
33189;BME280;52601;53.070;10.600;2023-04-05T02:11:47;102217.72;;;-4.70;100.00
33189;BME280;52601;53.070;10.600;2023-04-05T02:14:32;102212.59;;;-4.70;100.00
33189;BME280;52601;53.070;10.600;2023-04-05T02:17:17;102214.38;;;-4.67;100.00
33189;BME280;52601;53.070;10.600;2023-04-05T02:20:08;102213.34;;;-4.72;100.00
33189;BME280;52601;53.070;10.600;2023-04-05T02:22:55;102214.00;;;-4.78;100.00
33189;BME280;52601;53.070;10.600;2023-04-05T02:25:41;102209.75;;;-4.77;100.00
33189;BME280;52601;53.070;10.600;2023-04-05T02:28:26;102206.22;;;-4.57;100.00
33189;BME280;52601;53.070;10.600;2023-04-05T02:31:12;102209.84;;;-4.05;100.00
33189;BME280;52601;53.070;10.600;2023-04-05T02:33:58;102207.13;;;-4.09;100.00
33189;BME280;52601;53.070;10.600;2023-04-05T02:36:45;102195.00;;;-4.15;100.00
33189;BME280;52601;53.070;10.600;2023-04-05T02:39:31;102198.38;;;-4.16;100.00
33189;BME280;52601;53.070;10.600;2023-04-05T02:42:17;102191.78;;;-4.33;100.00
33189;BME280;52601;53.070;10.600;2023-04-05T02:45:03;102186.28;;;-4.44;100.00
33189;BME280;52601;53.070;10.600;2023-04-05T02:47:48;102185.78;;;-4.57;100.00
33189;BME280;52601;53.070;10.600;2023-04-05T02:50:34;102188.53;;;-4.75;100.00
33189;BME280;52601;53.070;10.600;2023-04-05T02:53:20;102178.38;;;-4.73;100.00
33189;BME280;52601;53.070;10.600;2023-04-05T02:56:05;102192.78;;;-4.75;100.00
33189;BME280;52601;53.070;10.600;2023-04-05T02:58:52;102189.47;;;-4.73;100.00
33189;BME280;52601;53.070;10.600;2023-04-05T03:01:37;102175.47;;;-4.82;100.00
33189;BME280;52601;53.070;10.600;2023-04-05T03:04:23;102187.59;;;-4.77;100.00
33189;BME280;52601;53.070;10.600;2023-04-05T03:07:11;102183.03;;;-4.85;100.00
33189;BME280;52601;53.070;10.600;2023-04-05T03:10:03;102181.75;;;-4.96;100.00
33189;BME280;52601;53.070;10.600;2023-04-05T03:12:49;102178.56;;;-4.67;100.00
33189;BME280;52601;53.070;10.600;2023-04-05T03:15:35;102188.16;;;-4.40;100.00
33189;BME280;52601;53.070;10.600;2023-04-05T03:18:21;102172.75;;;-4.63;100.00
33189;BME280;52601;53.070;10.600;2023-04-05T03:21:09;102187.22;;;-4.87;100.00
33189;BME280;52601;53.070;10.600;2023-04-05T03:23:55;102181.88;;;-4.93;100.00
33189;BME280;52601;53.070;10.600;2023-04-05T03:26:44;102188.53;;;-4.97;100.00
33189;BME280;52601;53.070;10.600;2023-04-05T03:29:30;102182.44;;;-5.00;100.00
33189;BME280;52601;53.070;10.600;2023-04-05T03:32:16;102181.75;;;-4.96;100.00
33189;BME280;52601;53.070;10.600;2023-04-05T03:35:01;102185.97;;;-4.97;100.00
33189;BME280;52601;53.070;10.600;2023-04-05T03:37:47;102187.56;;;-4.78;100.00
33189;BME280;52601;53.070;10.600;2023-04-05T03:40:32;102183.72;;;-4.89;100.00
33189;BME280;52601;53.070;10.600;2023-04-05T03:43:17;102175.59;;;-5.01;100.00
33189;BME280;52601;53.070;10.600;2023-04-05T03:46:03;102180.47;;;-5.07;100.00
33189;BME280;52601;53.070;10.600;2023-04-05T03:48:49;102184.66;;;-5.09;100.00
33189;BME280;52601;53.070;10.600;2023-04-05T03:51:34;102181.44;;;-5.04;100.00
33189;BME280;52601;53.070;10.600;2023-04-05T03:54:20;102186.91;;;-5.17;100.00
33189;BME280;52601;53.070;10.600;2023-04-05T03:57:06;102186.34;;;-5.31;100.00
33189;BME280;52601;53.070;10.600;2023-04-05T03:59:51;102183.94;;;-5.28;100.00
33189;BME280;52601;53.070;10.600;2023-04-05T04:02:37;102181.69;;;-5.20;100.00
33189;BME280;52601;53.070;10.600;2023-04-05T04:05:22;102185.69;;;-5.04;100.00
33189;BME280;52601;53.070;10.600;2023-04-05T04:08:08;102191.72;;;-5.02;100.00
33189;BME280;52601;53.070;10.600;2023-04-05T04:10:54;102181.22;;;-5.10;100.00
33189;BME280;52601;53.070;10.600;2023-04-05T04:13:40;102190.47;;;-5.13;100.00
33189;BME280;52601;53.070;10.600;2023-04-05T04:16:25;102184.53;;;-5.12;100.00
33189;BME280;52601;53.070;10.600;2023-04-05T04:19:13;102175.22;;;-5.10;100.00
33189;BME280;52601;53.070;10.600;2023-04-05T04:21:58;102173.97;;;-5.21;100.00
33189;BME280;52601;53.070;10.600;2023-04-05T04:24:44;102179.56;;;-5.30;100.00
33189;BME280;52601;53.070;10.600;2023-04-05T04:27:31;102185.81;;;-5.23;100.00
33189;BME280;52601;53.070;10.600;2023-04-05T04:30:17;102181.88;;;-5.36;100.00
33189;BME280;52601;53.070;10.600;2023-04-05T04:33:03;102184.19;;;-5.42;100.00
33189;BME280;52601;53.070;10.600;2023-04-05T04:35:53;102175.25;;;-5.53;100.00
33189;BME280;52601;53.070;10.600;2023-04-05T04:38:41;102188.31;;;-5.46;100.00
33189;BME280;52601;53.070;10.600;2023-04-05T04:41:27;102187.69;;;-5.40;100.00
33189;BME280;52601;53.070;10.600;2023-04-05T04:44:13;102180.72;;;-5.44;100.00
33189;BME280;52601;53.070;10.600;2023-04-05T04:46:59;102190.38;;;-5.37;100.00
33189;BME280;52601;53.070;10.600;2023-04-05T04:49:44;102187.19;;;-5.32;100.00
33189;BME280;52601;53.070;10.600;2023-04-05T04:52:30;102189.69;;;-5.11;100.00
33189;BME280;52601;53.070;10.600;2023-04-05T04:55:15;102184.38;;;-5.17;100.00
33189;BME280;52601;53.070;10.600;2023-04-05T04:58:01;102189.69;;;-5.11;100.00
33189;BME280;52601;53.070;10.600;2023-04-05T05:00:53;102188.13;;;-5.07;100.00
33189;BME280;52601;53.070;10.600;2023-04-05T05:03:41;102187.31;;;-5.06;100.00
33189;BME280;52601;53.070;10.600;2023-04-05T05:06:27;102183.72;;;-4.89;100.00
33189;BME280;52601;53.070;10.600;2023-04-05T05:09:13;102181.47;;;-4.58;100.00
33189;BME280;52601;53.070;10.600;2023-04-05T05:11:59;102171.44;;;-4.54;100.00
33189;BME280;52601;53.070;10.600;2023-04-05T05:14:46;102171.56;;;-4.49;100.00
33189;BME280;52601;53.070;10.600;2023-04-05T05:17:31;102190.97;;;-4.32;100.00
33189;BME280;52601;53.070;10.600;2023-04-05T05:20:18;102193.03;;;-4.22;100.00
33189;BME280;52601;53.070;10.600;2023-04-05T05:23:04;102190.75;;;-4.14;100.00
33189;BME280;52601;53.070;10.600;2023-04-05T05:25:49;102187.94;;;-4.22;100.00
33189;BME280;52601;53.070;10.600;2023-04-05T05:28:35;102193.44;;;-3.86;100.00
33189;BME280;52601;53.070;10.600;2023-04-05T05:31:21;102187.09;;;-3.72;100.00
33189;BME280;52601;53.070;10.600;2023-04-05T05:34:06;102180.22;;;-3.73;100.00
33189;BME280;52601;53.070;10.600;2023-04-05T05:36:54;102177.88;;;-3.66;100.00
33189;BME280;52601;53.070;10.600;2023-04-05T05:39:39;102189.38;;;-3.55;100.00
33189;BME280;52601;53.070;10.600;2023-04-05T05:42:25;102180.13;;;-3.50;100.00
33189;BME280;52601;53.070;10.600;2023-04-05T05:45:11;102169.06;;;-3.48;100.00
33189;BME280;52601;53.070;10.600;2023-04-05T05:47:56;102179.53;;;-3.42;100.00
33189;BME280;52601;53.070;10.600;2023-04-05T05:50:43;102164.09;;;-3.44;100.00
33189;BME280;52601;53.070;10.600;2023-04-05T05:53:29;102168.00;;;-3.28;100.00
33189;BME280;52601;53.070;10.600;2023-04-05T05:56:14;102164.06;;;-3.17;100.00
33189;BME280;52601;53.070;10.600;2023-04-05T05:59:00;102172.56;;;-2.92;100.00
33189;BME280;52601;53.070;10.600;2023-04-05T06:01:47;102162.84;;;-2.74;100.00
33189;BME280;52601;53.070;10.600;2023-04-05T06:04:33;102160.75;;;-2.57;100.00
33189;BME280;52601;53.070;10.600;2023-04-05T06:07:18;102170.56;;;-2.42;100.00
33189;BME280;52601;53.070;10.600;2023-04-05T06:10:06;102170.06;;;-2.31;100.00
33189;BME280;52601;53.070;10.600;2023-04-05T06:12:51;102169.38;;;-2.24;100.00
33189;BME280;52601;53.070;10.600;2023-04-05T06:15:37;102170.53;;;-2.13;100.00
33189;BME280;52601;53.070;10.600;2023-04-05T06:18:22;102163.78;;;-2.09;100.00
33189;BME280;52601;53.070;10.600;2023-04-05T06:21:08;102168.34;;;-1.99;100.00
33189;BME280;52601;53.070;10.600;2023-04-05T06:23:54;102159.00;;;-1.96;100.00
33189;BME280;52601;53.070;10.600;2023-04-05T06:26:39;102169.81;;;-1.75;100.00
33189;BME280;52601;53.070;10.600;2023-04-05T06:29:25;102173.75;;;-1.54;100.00
33189;BME280;52601;53.070;10.600;2023-04-05T06:32:10;102162.06;;;-1.42;100.00
33189;BME280;52601;53.070;10.600;2023-04-05T06:34:56;102175.69;;;-1.10;100.00
33189;BME280;52601;53.070;10.600;2023-04-05T06:37:42;102175.22;;;-0.93;100.00
33189;BME280;52601;53.070;10.600;2023-04-05T06:40:27;102171.38;;;-0.72;100.00
33189;BME280;52601;53.070;10.600;2023-04-05T06:43:13;102170.88;;;-0.55;100.00
33189;BME280;52601;53.070;10.600;2023-04-05T06:45:59;102164.34;;;-0.38;100.00
33189;BME280;52601;53.070;10.600;2023-04-05T06:48:45;102171.59;;;-0.19;100.00
33189;BME280;52601;53.070;10.600;2023-04-05T06:51:31;102171.91;;;-0.02;100.00
33189;BME280;52601;53.070;10.600;2023-04-05T06:54:17;102150.66;;;0.10;100.00
33189;BME280;52601;53.070;10.600;2023-04-05T06:57:02;102159.78;;;0.42;100.00
33189;BME280;52601;53.070;10.600;2023-04-05T06:59:48;102162.09;;;0.79;100.00
33189;BME280;52601;53.070;10.600;2023-04-05T07:02:33;102142.88;;;1.19;100.00
33189;BME280;52601;53.070;10.600;2023-04-05T07:05:20;102145.25;;;1.72;100.00
33189;BME280;52601;53.070;10.600;2023-04-05T07:08:06;102153.38;;;2.10;100.00
33189;BME280;52601;53.070;10.600;2023-04-05T07:10:51;102152.78;;;2.41;100.00
33189;BME280;52601;53.070;10.600;2023-04-05T07:13:37;102152.16;;;2.68;97.57
33189;BME280;52601;53.070;10.600;2023-04-05T07:16:23;102137.66;;;2.97;94.54
33189;BME280;52601;53.070;10.600;2023-04-05T07:19:08;102141.25;;;3.23;92.29
33189;BME280;52601;53.070;10.600;2023-04-05T07:21:55;102130.97;;;3.41;88.74
33189;BME280;52601;53.070;10.600;2023-04-05T07:24:43;102135.38;;;3.74;89.90
33189;BME280;52601;53.070;10.600;2023-04-05T07:27:29;102134.56;;;3.92;87.18
33189;BME280;52601;53.070;10.600;2023-04-05T07:30:15;102132.00;;;4.05;85.99
33189;BME280;52601;53.070;10.600;2023-04-05T07:33:00;102131.16;;;4.11;85.28
33189;BME280;52601;53.070;10.600;2023-04-05T07:35:51;102138.91;;;4.08;81.90
33189;BME280;52601;53.070;10.600;2023-04-05T07:38:38;102126.84;;;4.17;79.92
33189;BME280;52601;53.070;10.600;2023-04-05T07:41:24;102129.41;;;4.26;79.62
33189;BME280;52601;53.070;10.600;2023-04-05T07:44:10;102129.41;;;4.22;78.00
33189;BME280;52601;53.070;10.600;2023-04-05T07:46:56;102131.13;;;4.20;75.88
33189;BME280;52601;53.070;10.600;2023-04-05T07:49:42;102131.16;;;4.23;79.65
33189;BME280;52601;53.070;10.600;2023-04-05T07:52:27;102123.34;;;4.20;77.35
33189;BME280;52601;53.070;10.600;2023-04-05T07:55:13;102123.34;;;4.39;79.47
33189;BME280;52601;53.070;10.600;2023-04-05T07:57:58;102124.22;;;4.60;77.68
33189;BME280;52601;53.070;10.600;2023-04-05T08:00:44;102121.59;;;4.70;77.73
33189;BME280;52601;53.070;10.600;2023-04-05T08:03:30;102118.94;;;4.97;79.11
33189;BME280;52601;53.070;10.600;2023-04-05T08:06:16;102120.59;;;5.25;75.68
33189;BME280;52601;53.070;10.600;2023-04-05T08:09:02;102115.16;;;5.71;80.05
33189;BME280;52601;53.070;10.600;2023-04-05T08:11:50;102115.88;;;6.03;75.17
33189;BME280;52601;53.070;10.600;2023-04-05T08:14:36;102119.00;;;6.46;75.97
33189;BME280;52601;53.070;10.600;2023-04-05T08:17:21;102111.00;;;8.04;69.59
33189;BME280;52601;53.070;10.600;2023-04-05T08:20:08;102098.16;;;10.50;61.59
33189;BME280;52601;53.070;10.600;2023-04-05T08:22:54;102099.13;;;11.99;56.49
33189;BME280;52601;53.070;10.600;2023-04-05T08:25:39;102093.75;;;13.28;52.79
33189;BME280;52601;53.070;10.600;2023-04-05T08:28:27;102092.53;;;13.14;51.55
33189;BME280;52601;53.070;10.600;2023-04-05T08:31:13;102086.56;;;14.63;47.77
33189;BME280;52601;53.070;10.600;2023-04-05T08:33:58;102090.63;;;14.90;48.72
33189;BME280;52601;53.070;10.600;2023-04-05T08:36:44;102094.13;;;15.11;47.45
33189;BME280;52601;53.070;10.600;2023-04-05T08:39:35;102091.13;;;15.18;44.92
33189;BME280;52601;53.070;10.600;2023-04-05T08:42:35;102088.34;;;13.99;45.26
33189;BME280;52601;53.070;10.600;2023-04-05T08:45:21;102089.97;;;13.80;46.45
33189;BME280;52601;53.070;10.600;2023-04-05T08:48:07;102089.47;;;13.92;46.03
33189;BME280;52601;53.070;10.600;2023-04-05T08:50:53;102086.84;;;14.96;45.07
33189;BME280;52601;53.070;10.600;2023-04-05T08:53:39;102083.72;;;14.04;42.80
33189;BME280;52601;53.070;10.600;2023-04-05T08:56:28;102080.63;;;15.35;43.68
33189;BME280;52601;53.070;10.600;2023-04-05T08:59:16;102073.34;;;15.61;41.42
33189;BME280;52601;53.070;10.600;2023-04-05T09:02:07;102069.31;;;13.69;40.20
33189;BME280;52601;53.070;10.600;2023-04-05T09:04:56;102073.53;;;14.38;40.44
33189;BME280;52601;53.070;10.600;2023-04-05T09:07:42;102066.31;;;15.78;39.47
33189;BME280;52601;53.070;10.600;2023-04-05T09:10:28;102074.53;;;14.96;39.81
33189;BME280;52601;53.070;10.600;2023-04-05T09:13:15;102077.75;;;15.79;41.23
33189;BME280;52601;53.070;10.600;2023-04-05T09:16:01;102075.78;;;14.88;40.87
33189;BME280;52601;53.070;10.600;2023-04-05T09:18:47;102064.91;;;14.75;40.17
33189;BME280;52601;53.070;10.600;2023-04-05T09:24:42;102053.50;;;15.32;39.46
33189;BME280;52601;53.070;10.600;2023-04-05T09:27:28;102055.31;;;15.69;40.30
33189;BME280;52601;53.070;10.600;2023-04-05T09:30:20;102069.56;;;13.40;39.63
33189;BME280;52601;53.070;10.600;2023-04-05T09:33:07;102063.97;;;14.56;41.84
33189;BME280;52601;53.070;10.600;2023-04-05T09:35:54;102062.53;;;15.46;41.08
33189;BME280;52601;53.070;10.600;2023-04-05T09:38:44;102065.22;;;13.39;40.16
33189;BME280;52601;53.070;10.600;2023-04-05T09:41:29;102061.56;;;14.30;39.39
33189;BME280;52601;53.070;10.600;2023-04-05T09:44:15;102060.94;;;14.65;39.73
33189;BME280;52601;53.070;10.600;2023-04-05T09:47:17;102056.47;;;15.44;38.80
33189;BME280;52601;53.070;10.600;2023-04-05T09:50:16;102049.88;;;15.72;37.96
33189;BME280;52601;53.070;10.600;2023-04-05T09:53:12;102055.69;;;14.84;38.68
33189;BME280;52601;53.070;10.600;2023-04-05T09:56:09;102056.06;;;13.93;39.86
33189;BME280;52601;53.070;10.600;2023-04-05T09:59:06;102057.66;;;13.53;43.83
33189;BME280;52601;53.070;10.600;2023-04-05T10:01:52;102054.72;;;13.15;40.42
33189;BME280;52601;53.070;10.600;2023-04-05T10:04:39;102043.19;;;11.66;44.28
33189;BME280;52601;53.070;10.600;2023-04-05T10:07:25;102055.84;;;11.52;46.17
33189;BME280;52601;53.070;10.600;2023-04-05T10:10:11;102039.94;;;12.63;41.99
33189;BME280;52601;53.070;10.600;2023-04-05T10:12:57;102036.03;;;11.97;47.32
33189;BME280;52601;53.070;10.600;2023-04-05T10:15:45;102044.84;;;11.41;46.77
33189;BME280;52601;53.070;10.600;2023-04-05T10:18:44;102044.31;;;11.58;46.78
33189;BME280;52601;53.070;10.600;2023-04-05T10:21:34;102031.81;;;12.20;46.43
33189;BME280;52601;53.070;10.600;2023-04-05T10:27:32;102038.72;;;13.65;47.72
33189;BME280;52601;53.070;10.600;2023-04-05T10:30:19;102045.59;;;10.53;50.52
33189;BME280;52601;53.070;10.600;2023-04-05T10:36:05;102042.75;;;9.15;59.82
33189;BME280;52601;53.070;10.600;2023-04-05T10:39:02;102026.63;;;8.50;55.13
33189;BME280;52601;53.070;10.600;2023-04-05T10:41:52;102025.75;;;8.01;58.06
33189;BME280;52601;53.070;10.600;2023-04-05T10:44:39;102022.53;;;7.84;60.57
33189;BME280;52601;53.070;10.600;2023-04-05T10:47:30;102019.50;;;10.14;67.84
33189;BME280;52601;53.070;10.600;2023-04-05T10:50:21;102010.03;;;10.09;58.14
33189;BME280;52601;53.070;10.600;2023-04-05T10:53:08;102011.56;;;9.45;58.85
33189;BME280;52601;53.070;10.600;2023-04-05T10:55:54;102017.13;;;8.91;56.28
33189;BME280;52601;53.070;10.600;2023-04-05T10:58:42;102016.34;;;10.02;54.43
33189;BME280;52601;53.070;10.600;2023-04-05T11:01:29;102001.03;;;11.69;52.41
33189;BME280;52601;53.070;10.600;2023-04-05T11:04:16;102008.34;;;11.60;55.14
33189;BME280;52601;53.070;10.600;2023-04-05T11:07:14;101998.63;;;12.16;53.15
33189;BME280;52601;53.070;10.600;2023-04-05T11:10:02;101992.31;;;10.20;53.90
33189;BME280;52601;53.070;10.600;2023-04-05T11:15:34;101991.78;;;8.50;60.56
